sensor_id;sensor_type;location;lat;lon;timestamp;P1;durP1;ratioP1;P2;durP2;ratioP2
11086;SDS011;5597;47.588;9.642;2022-07-04T00:00:49;1.83;;;1.60;;
11086;SDS011;5597;47.588;9.642;2022-07-04T00:03:15;1.70;;;1.60;;
11086;SDS011;5597;47.588;9.642;2022-07-04T00:05:40;1.70;;;1.60;;
11086;SDS011;5597;47.588;9.642;2022-07-04T00:08:06;1.80;;;1.70;;
11086;SDS011;5597;47.588;9.642;2022-07-04T00:10:32;1.63;;;1.53;;
11086;SDS011;5597;47.588;9.642;2022-07-04T00:12:58;1.93;;;1.30;;
11086;SDS011;5597;47.588;9.642;2022-07-04T00:15:23;1.87;;;1.47;;
11086;SDS011;5597;47.588;9.642;2022-07-04T00:17:49;1.97;;;1.57;;
11086;SDS011;5597;47.588;9.642;2022-07-04T00:20:15;1.80;;;1.60;;
11086;SDS011;5597;47.588;9.642;2022-07-04T00:22:40;2.17;;;1.70;;
11086;SDS011;5597;47.588;9.642;2022-07-04T00:25:06;1.97;;;1.43;;
11086;SDS011;5597;47.588;9.642;2022-07-04T00:27:32;1.47;;;1.27;;
11086;SDS011;5597;47.588;9.642;2022-07-04T00:29:58;1.60;;;1.50;;
11086;SDS011;5597;47.588;9.642;2022-07-04T00:32:23;1.60;;;1.40;;
11086;SDS011;5597;47.588;9.642;2022-07-04T00:34:49;2.40;;;1.43;;
11086;SDS011;5597;47.588;9.642;2022-07-04T00:37:15;1.40;;;1.30;;
11086;SDS011;5597;47.588;9.642;2022-07-04T00:39:41;2.70;;;1.43;;
11086;SDS011;5597;47.588;9.642;2022-07-04T00:42:07;1.83;;;1.30;;
11086;SDS011;5597;47.588;9.642;2022-07-04T00:44:33;1.50;;;1.30;;
11086;SDS011;5597;47.588;9.642;2022-07-04T00:47:02;1.57;;;1.40;;
11086;SDS011;5597;47.588;9.642;2022-07-04T00:49:32;1.40;;;1.30;;
11086;SDS011;5597;47.588;9.642;2022-07-04T00:51:58;2.57;;;1.50;;
11086;SDS011;5597;47.588;9.642;2022-07-04T00:54:25;2.80;;;1.30;;
11086;SDS011;5597;47.588;9.642;2022-07-04T00:56:53;1.40;;;1.30;;
11086;SDS011;5597;47.588;9.642;2022-07-04T00:59:20;1.40;;;1.30;;
11086;SDS011;5597;47.588;9.642;2022-07-04T01:01:46;1.63;;;1.30;;
11086;SDS011;5597;47.588;9.642;2022-07-04T01:04:11;1.63;;;1.33;;
11086;SDS011;5597;47.588;9.642;2022-07-04T01:06:37;1.77;;;1.20;;
11086;SDS011;5597;47.588;9.642;2022-07-04T01:09:03;1.63;;;1.43;;
11086;SDS011;5597;47.588;9.642;2022-07-04T01:11:30;1.20;;;1.10;;
11086;SDS011;5597;47.588;9.642;2022-07-04T01:13:56;3.60;;;1.20;;
11086;SDS011;5597;47.588;9.642;2022-07-04T01:16:23;1.60;;;1.30;;
11086;SDS011;5597;47.588;9.642;2022-07-04T01:18:50;1.40;;;1.20;;
11086;SDS011;5597;47.588;9.642;2022-07-04T01:21:17;1.20;;;1.10;;
11086;SDS011;5597;47.588;9.642;2022-07-04T01:23:43;1.30;;;1.20;;
11086;SDS011;5597;47.588;9.642;2022-07-04T01:26:09;1.40;;;1.30;;
11086;SDS011;5597;47.588;9.642;2022-07-04T01:28:34;1.60;;;1.33;;
11086;SDS011;5597;47.588;9.642;2022-07-04T01:31:00;1.53;;;1.27;;
11086;SDS011;5597;47.588;9.642;2022-07-04T01:33:26;2.63;;;1.30;;
11086;SDS011;5597;47.588;9.642;2022-07-04T01:35:51;1.80;;;1.20;;
11086;SDS011;5597;47.588;9.642;2022-07-04T01:38:17;1.73;;;1.30;;
11086;SDS011;5597;47.588;9.642;2022-07-04T01:40:43;1.47;;;1.10;;
11086;SDS011;5597;47.588;9.642;2022-07-04T01:43:09;1.37;;;1.23;;
11086;SDS011;5597;47.588;9.642;2022-07-04T01:45:35;1.80;;;1.47;;
11086;SDS011;5597;47.588;9.642;2022-07-04T01:48:05;2.40;;;1.50;;
11086;SDS011;5597;47.588;9.642;2022-07-04T01:50:32;1.73;;;1.33;;
11086;SDS011;5597;47.588;9.642;2022-07-04T01:52:58;1.30;;;1.20;;
11086;SDS011;5597;47.588;9.642;2022-07-04T01:55:24;1.20;;;1.10;;
11086;SDS011;5597;47.588;9.642;2022-07-04T01:57:49;1.43;;;1.33;;
11086;SDS011;5597;47.588;9.642;2022-07-04T02:00:15;1.20;;;1.10;;
11086;SDS011;5597;47.588;9.642;2022-07-04T02:02:59;1.33;;;1.23;;
11086;SDS011;5597;47.588;9.642;2022-07-04T02:05:24;0.97;;;0.97;;
11086;SDS011;5597;47.588;9.642;2022-07-04T02:07:50;1.50;;;1.30;;
11086;SDS011;5597;47.588;9.642;2022-07-04T02:10:16;1.23;;;1.13;;
11086;SDS011;5597;47.588;9.642;2022-07-04T02:12:42;1.30;;;1.20;;
11086;SDS011;5597;47.588;9.642;2022-07-04T02:15:27;1.30;;;1.20;;
11086;SDS011;5597;47.588;9.642;2022-07-04T02:17:58;1.53;;;1.20;;
11086;SDS011;5597;47.588;9.642;2022-07-04T02:20:24;1.40;;;1.30;;
11086;SDS011;5597;47.588;9.642;2022-07-04T02:22:50;1.30;;;1.20;;
11086;SDS011;5597;47.588;9.642;2022-07-04T02:25:17;1.27;;;1.00;;
11086;SDS011;5597;47.588;9.642;2022-07-04T02:27:42;1.20;;;1.10;;
11086;SDS011;5597;47.588;9.642;2022-07-04T02:30:08;1.40;;;1.20;;
11086;SDS011;5597;47.588;9.642;2022-07-04T02:32:34;1.37;;;1.27;;
11086;SDS011;5597;47.588;9.642;2022-07-04T02:35:00;1.30;;;1.20;;
11086;SDS011;5597;47.588;9.642;2022-07-04T02:37:26;1.07;;;1.00;;
11086;SDS011;5597;47.588;9.642;2022-07-04T02:39:52;1.40;;;1.30;;
11086;SDS011;5597;47.588;9.642;2022-07-04T02:42:18;1.23;;;1.10;;
11086;SDS011;5597;47.588;9.642;2022-07-04T02:44:44;1.70;;;1.40;;
11086;SDS011;5597;47.588;9.642;2022-07-04T02:47:10;2.47;;;1.20;;
11086;SDS011;5597;47.588;9.642;2022-07-04T02:49:36;1.20;;;1.03;;
11086;SDS011;5597;47.588;9.642;2022-07-04T02:52:02;1.20;;;1.10;;
11086;SDS011;5597;47.588;9.642;2022-07-04T02:54:28;1.00;;;0.97;;
11086;SDS011;5597;47.588;9.642;2022-07-04T02:56:54;1.40;;;1.10;;
11086;SDS011;5597;47.588;9.642;2022-07-04T02:59:19;2.53;;;1.17;;
11086;SDS011;5597;47.588;9.642;2022-07-04T03:01:45;1.40;;;1.10;;
11086;SDS011;5597;47.588;9.642;2022-07-04T03:04:11;1.50;;;1.30;;
11086;SDS011;5597;47.588;9.642;2022-07-04T03:06:36;1.30;;;1.20;;
11086;SDS011;5597;47.588;9.642;2022-07-04T03:09:02;1.37;;;1.27;;
11086;SDS011;5597;47.588;9.642;2022-07-04T03:11:27;1.27;;;1.17;;
11086;SDS011;5597;47.588;9.642;2022-07-04T03:13:53;1.47;;;1.30;;
11086;SDS011;5597;47.588;9.642;2022-07-04T03:16:19;1.30;;;1.20;;
11086;SDS011;5597;47.588;9.642;2022-07-04T03:18:44;1.47;;;1.30;;
11086;SDS011;5597;47.588;9.642;2022-07-04T03:21:10;1.20;;;1.10;;
11086;SDS011;5597;47.588;9.642;2022-07-04T03:23:36;1.40;;;1.30;;
11086;SDS011;5597;47.588;9.642;2022-07-04T03:26:01;4.03;;;1.30;;
11086;SDS011;5597;47.588;9.642;2022-07-04T03:28:27;1.60;;;1.50;;
11086;SDS011;5597;47.588;9.642;2022-07-04T03:30:53;1.80;;;1.13;;
11086;SDS011;5597;47.588;9.642;2022-07-04T03:33:18;1.60;;;1.20;;
11086;SDS011;5597;47.588;9.642;2022-07-04T03:35:44;1.93;;;1.40;;
11086;SDS011;5597;47.588;9.642;2022-07-04T03:38:10;1.30;;;1.20;;
11086;SDS011;5597;47.588;9.642;2022-07-04T03:40:35;1.53;;;1.33;;
11086;SDS011;5597;47.588;9.642;2022-07-04T03:43:03;2.10;;;1.40;;
11086;SDS011;5597;47.588;9.642;2022-07-04T03:45:31;1.90;;;1.67;;
11086;SDS011;5597;47.588;9.642;2022-07-04T03:47:57;2.50;;;1.67;;
11086;SDS011;5597;47.588;9.642;2022-07-04T03:50:22;1.53;;;1.40;;
11086;SDS011;5597;47.588;9.642;2022-07-04T03:52:48;3.50;;;2.27;;
11086;SDS011;5597;47.588;9.642;2022-07-04T03:55:14;2.53;;;2.00;;
11086;SDS011;5597;47.588;9.642;2022-07-04T03:57:40;3.00;;;2.67;;
11086;SDS011;5597;47.588;9.642;2022-07-04T04:00:06;4.33;;;2.60;;
11086;SDS011;5597;47.588;9.642;2022-07-04T04:02:33;2.87;;;2.40;;
11086;SDS011;5597;47.588;9.642;2022-07-04T04:04:59;3.37;;;2.53;;
11086;SDS011;5597;47.588;9.642;2022-07-04T04:07:43;2.43;;;2.20;;
11086;SDS011;5597;47.588;9.642;2022-07-04T04:10:09;5.33;;;2.40;;
11086;SDS011;5597;47.588;9.642;2022-07-04T04:12:34;4.53;;;2.40;;
11086;SDS011;5597;47.588;9.642;2022-07-04T04:15:00;4.03;;;2.30;;
11086;SDS011;5597;47.588;9.642;2022-07-04T04:17:26;4.10;;;2.60;;
11086;SDS011;5597;47.588;9.642;2022-07-04T04:19:51;2.67;;;2.20;;
11086;SDS011;5597;47.588;9.642;2022-07-04T04:22:17;2.17;;;2.00;;
11086;SDS011;5597;47.588;9.642;2022-07-04T04:24:42;2.83;;;2.20;;
11086;SDS011;5597;47.588;9.642;2022-07-04T04:27:08;2.30;;;2.10;;
11086;SDS011;5597;47.588;9.642;2022-07-04T04:29:33;2.33;;;2.10;;
11086;SDS011;5597;47.588;9.642;2022-07-04T04:31:59;3.30;;;2.20;;
11086;SDS011;5597;47.588;9.642;2022-07-04T04:34:25;3.13;;;2.00;;
11086;SDS011;5597;47.588;9.642;2022-07-04T04:36:50;2.20;;;2.00;;
11086;SDS011;5597;47.588;9.642;2022-07-04T04:39:16;2.97;;;2.17;;
11086;SDS011;5597;47.588;9.642;2022-07-04T04:41:41;2.20;;;2.00;;
11086;SDS011;5597;47.588;9.642;2022-07-04T04:44:07;2.80;;;1.90;;
11086;SDS011;5597;47.588;9.642;2022-07-04T04:46:33;2.63;;;1.80;;
11086;SDS011;5597;47.588;9.642;2022-07-04T04:48:58;3.97;;;2.43;;
11086;SDS011;5597;47.588;9.642;2022-07-04T04:51:24;2.33;;;2.10;;
11086;SDS011;5597;47.588;9.642;2022-07-04T04:53:50;2.67;;;2.10;;
11086;SDS011;5597;47.588;9.642;2022-07-04T04:56:15;2.87;;;2.27;;
11086;SDS011;5597;47.588;9.642;2022-07-04T04:58:41;2.20;;;1.93;;
11086;SDS011;5597;47.588;9.642;2022-07-04T05:01:06;2.30;;;2.10;;
11086;SDS011;5597;47.588;9.642;2022-07-04T05:03:32;2.30;;;2.10;;
11086;SDS011;5597;47.588;9.642;2022-07-04T05:05:58;2.40;;;2.20;;
11086;SDS011;5597;47.588;9.642;2022-07-04T05:08:24;2.20;;;2.00;;
11086;SDS011;5597;47.588;9.642;2022-07-04T05:10:50;2.37;;;2.17;;
11086;SDS011;5597;47.588;9.642;2022-07-04T05:13:17;3.60;;;2.23;;
11086;SDS011;5597;47.588;9.642;2022-07-04T05:15:43;3.00;;;2.20;;
11086;SDS011;5597;47.588;9.642;2022-07-04T05:18:08;2.10;;;1.90;;
11086;SDS011;5597;47.588;9.642;2022-07-04T05:20:34;3.07;;;2.00;;
11086;SDS011;5597;47.588;9.642;2022-07-04T05:23:00;2.40;;;2.20;;
11086;SDS011;5597;47.588;9.642;2022-07-04T05:25:25;2.20;;;2.00;;
11086;SDS011;5597;47.588;9.642;2022-07-04T05:27:51;2.43;;;2.23;;
11086;SDS011;5597;47.588;9.642;2022-07-04T05:30:17;3.10;;;2.40;;
11086;SDS011;5597;47.588;9.642;2022-07-04T05:32:42;4.37;;;2.50;;
11086;SDS011;5597;47.588;9.642;2022-07-04T05:35:08;3.37;;;2.30;;
11086;SDS011;5597;47.588;9.642;2022-07-04T05:37:34;2.93;;;2.73;;
11086;SDS011;5597;47.588;9.642;2022-07-04T05:40:00;3.43;;;2.47;;
11086;SDS011;5597;47.588;9.642;2022-07-04T05:42:27;2.90;;;2.60;;
11086;SDS011;5597;47.588;9.642;2022-07-04T05:44:53;2.93;;;2.50;;
11086;SDS011;5597;47.588;9.642;2022-07-04T05:47:18;2.80;;;2.43;;
11086;SDS011;5597;47.588;9.642;2022-07-04T05:49:44;2.83;;;2.63;;
11086;SDS011;5597;47.588;9.642;2022-07-04T05:52:10;3.10;;;2.33;;
11086;SDS011;5597;47.588;9.642;2022-07-04T05:54:35;3.53;;;2.63;;
11086;SDS011;5597;47.588;9.642;2022-07-04T05:57:01;2.87;;;2.53;;
11086;SDS011;5597;47.588;9.642;2022-07-04T05:59:26;2.50;;;2.27;;
11086;SDS011;5597;47.588;9.642;2022-07-04T06:01:54;2.40;;;2.20;;
11086;SDS011;5597;47.588;9.642;2022-07-04T06:04:20;2.50;;;2.10;;
11086;SDS011;5597;47.588;9.642;2022-07-04T06:06:46;2.30;;;2.10;;
11086;SDS011;5597;47.588;9.642;2022-07-04T06:09:11;2.57;;;2.20;;
11086;SDS011;5597;47.588;9.642;2022-07-04T06:11:37;2.10;;;1.90;;
11086;SDS011;5597;47.588;9.642;2022-07-04T06:14:02;2.37;;;1.83;;
11086;SDS011;5597;47.588;9.642;2022-07-04T06:16:28;1.90;;;1.80;;
11086;SDS011;5597;47.588;9.642;2022-07-04T06:18:53;2.57;;;2.00;;
11086;SDS011;5597;47.588;9.642;2022-07-04T06:21:19;2.87;;;1.90;;
11086;SDS011;5597;47.588;9.642;2022-07-04T06:23:45;3.30;;;2.00;;
11086;SDS011;5597;47.588;9.642;2022-07-04T06:26:11;3.37;;;2.17;;
11086;SDS011;5597;47.588;9.642;2022-07-04T06:28:36;3.30;;;2.17;;
11086;SDS011;5597;47.588;9.642;2022-07-04T06:31:02;2.50;;;2.03;;
11086;SDS011;5597;47.588;9.642;2022-07-04T06:33:28;2.30;;;1.97;;
11086;SDS011;5597;47.588;9.642;2022-07-04T06:35:54;3.77;;;1.90;;
11086;SDS011;5597;47.588;9.642;2022-07-04T06:38:20;1.77;;;1.67;;
11086;SDS011;5597;47.588;9.642;2022-07-04T06:40:53;2.70;;;1.90;;
11086;SDS011;5597;47.588;9.642;2022-07-04T06:43:20;3.53;;;1.87;;
11086;SDS011;5597;47.588;9.642;2022-07-04T06:45:45;2.37;;;1.90;;
11086;SDS011;5597;47.588;9.642;2022-07-04T06:48:11;2.33;;;1.83;;
11086;SDS011;5597;47.588;9.642;2022-07-04T06:50:37;2.23;;;2.00;;
11086;SDS011;5597;47.588;9.642;2022-07-04T06:53:03;3.13;;;2.10;;
11086;SDS011;5597;47.588;9.642;2022-07-04T06:55:40;2.20;;;2.00;;
11086;SDS011;5597;47.588;9.642;2022-07-04T06:58:07;3.63;;;1.90;;
11086;SDS011;5597;47.588;9.642;2022-07-04T07:00:34;2.63;;;2.00;;
11086;SDS011;5597;47.588;9.642;2022-07-04T07:03:00;3.93;;;2.00;;
11086;SDS011;5597;47.588;9.642;2022-07-04T07:05:27;2.90;;;1.90;;
11086;SDS011;5597;47.588;9.642;2022-07-04T07:07:54;2.33;;;1.97;;
11086;SDS011;5597;47.588;9.642;2022-07-04T07:10:20;2.10;;;1.90;;
11086;SDS011;5597;47.588;9.642;2022-07-04T07:12:46;2.20;;;1.97;;
11086;SDS011;5597;47.588;9.642;2022-07-04T07:15:12;2.30;;;2.07;;
11086;SDS011;5597;47.588;9.642;2022-07-04T07:17:38;4.23;;;2.10;;
11086;SDS011;5597;47.588;9.642;2022-07-04T07:20:04;2.07;;;1.87;;
11086;SDS011;5597;47.588;9.642;2022-07-04T07:22:31;1.80;;;1.70;;
11086;SDS011;5597;47.588;9.642;2022-07-04T07:24:56;2.13;;;1.90;;
11086;SDS011;5597;47.588;9.642;2022-07-04T07:27:22;2.87;;;1.73;;
11086;SDS011;5597;47.588;9.642;2022-07-04T07:29:48;2.10;;;1.90;;
11086;SDS011;5597;47.588;9.642;2022-07-04T07:32:13;2.43;;;1.90;;
11086;SDS011;5597;47.588;9.642;2022-07-04T07:34:39;3.03;;;2.00;;
11086;SDS011;5597;47.588;9.642;2022-07-04T07:37:05;2.50;;;1.90;;
11086;SDS011;5597;47.588;9.642;2022-07-04T07:39:32;3.60;;;2.13;;
11086;SDS011;5597;47.588;9.642;2022-07-04T07:41:58;5.10;;;1.90;;
11086;SDS011;5597;47.588;9.642;2022-07-04T07:44:23;2.27;;;1.80;;
11086;SDS011;5597;47.588;9.642;2022-07-04T07:46:49;2.10;;;1.90;;
11086;SDS011;5597;47.588;9.642;2022-07-04T07:49:15;2.73;;;1.93;;
11086;SDS011;5597;47.588;9.642;2022-07-04T07:51:41;4.40;;;2.00;;
11086;SDS011;5597;47.588;9.642;2022-07-04T07:54:06;2.43;;;1.90;;
11086;SDS011;5597;47.588;9.642;2022-07-04T07:56:32;3.57;;;1.97;;
11086;SDS011;5597;47.588;9.642;2022-07-04T07:58:58;2.00;;;1.80;;
11086;SDS011;5597;47.588;9.642;2022-07-04T08:01:24;2.00;;;1.80;;
11086;SDS011;5597;47.588;9.642;2022-07-04T08:03:49;2.37;;;2.17;;
11086;SDS011;5597;47.588;9.642;2022-07-04T08:06:34;2.70;;;2.00;;
11086;SDS011;5597;47.588;9.642;2022-07-04T08:08:59;3.03;;;1.80;;
11086;SDS011;5597;47.588;9.642;2022-07-04T08:11:25;2.77;;;1.90;;
11086;SDS011;5597;47.588;9.642;2022-07-04T08:13:51;2.33;;;1.60;;
11086;SDS011;5597;47.588;9.642;2022-07-04T08:16:17;1.80;;;1.60;;
11086;SDS011;5597;47.588;9.642;2022-07-04T08:18:42;1.80;;;1.70;;
11086;SDS011;5597;47.588;9.642;2022-07-04T08:21:08;1.70;;;1.60;;
11086;SDS011;5597;47.588;9.642;2022-07-04T08:23:35;2.03;;;1.67;;
11086;SDS011;5597;47.588;9.642;2022-07-04T08:26:01;2.23;;;1.57;;
11086;SDS011;5597;47.588;9.642;2022-07-04T08:28:28;1.93;;;1.60;;
11086;SDS011;5597;47.588;9.642;2022-07-04T08:30:55;1.60;;;1.50;;
11086;SDS011;5597;47.588;9.642;2022-07-04T08:33:21;2.93;;;1.80;;
11086;SDS011;5597;47.588;9.642;2022-07-04T08:35:47;1.50;;;1.40;;
11086;SDS011;5597;47.588;9.642;2022-07-04T08:38:13;1.80;;;1.60;;
11086;SDS011;5597;47.588;9.642;2022-07-04T08:40:40;2.63;;;1.73;;
11086;SDS011;5597;47.588;9.642;2022-07-04T08:43:06;1.50;;;1.40;;
11086;SDS011;5597;47.588;9.642;2022-07-04T08:45:32;3.23;;;1.97;;
11086;SDS011;5597;47.588;9.642;2022-07-04T08:47:59;3.33;;;1.67;;
11086;SDS011;5597;47.588;9.642;2022-07-04T08:50:26;1.87;;;1.57;;
11086;SDS011;5597;47.588;9.642;2022-07-04T08:52:59;2.07;;;1.50;;
11086;SDS011;5597;47.588;9.642;2022-07-04T08:55:35;1.93;;;1.60;;
11086;SDS011;5597;47.588;9.642;2022-07-04T08:58:21;1.93;;;1.70;;
11086;SDS011;5597;47.588;9.642;2022-07-04T09:00:57;2.03;;;1.60;;
11086;SDS011;5597;47.588;9.642;2022-07-04T09:03:24;2.17;;;1.60;;
11086;SDS011;5597;47.588;9.642;2022-07-04T09:05:51;1.77;;;1.53;;
11086;SDS011;5597;47.588;9.642;2022-07-04T09:08:17;2.07;;;1.60;;
11086;SDS011;5597;47.588;9.642;2022-07-04T09:10:42;1.67;;;1.43;;
11086;SDS011;5597;47.588;9.642;2022-07-04T09:13:09;1.83;;;1.50;;
11086;SDS011;5597;47.588;9.642;2022-07-04T09:15:35;1.43;;;1.30;;
11086;SDS011;5597;47.588;9.642;2022-07-04T09:18:02;3.03;;;1.40;;
11086;SDS011;5597;47.588;9.642;2022-07-04T09:20:29;1.53;;;1.20;;
11086;SDS011;5597;47.588;9.642;2022-07-04T09:22:57;2.00;;;1.50;;
11086;SDS011;5597;47.588;9.642;2022-07-04T09:25:23;2.50;;;1.50;;
11086;SDS011;5597;47.588;9.642;2022-07-04T09:27:53;2.23;;;1.60;;
11086;SDS011;5597;47.588;9.642;2022-07-04T09:30:21;1.60;;;1.50;;
11086;SDS011;5597;47.588;9.642;2022-07-04T09:32:52;2.37;;;1.60;;
11086;SDS011;5597;47.588;9.642;2022-07-04T09:35:25;2.53;;;1.90;;
11086;SDS011;5597;47.588;9.642;2022-07-04T09:37:52;2.67;;;1.60;;
11086;SDS011;5597;47.588;9.642;2022-07-04T09:40:38;2.37;;;1.70;;
11086;SDS011;5597;47.588;9.642;2022-07-04T09:43:24;2.67;;;1.80;;
11086;SDS011;5597;47.588;9.642;2022-07-04T09:45:57;2.90;;;1.80;;
11086;SDS011;5597;47.588;9.642;2022-07-04T09:48:25;2.53;;;1.70;;
11086;SDS011;5597;47.588;9.642;2022-07-04T09:50:51;1.97;;;1.67;;
11086;SDS011;5597;47.588;9.642;2022-07-04T09:53:16;2.43;;;1.50;;
11086;SDS011;5597;47.588;9.642;2022-07-04T09:55:43;2.33;;;1.90;;
11086;SDS011;5597;47.588;9.642;2022-07-04T09:58:14;1.63;;;1.53;;
11086;SDS011;5597;47.588;9.642;2022-07-04T10:00:44;2.63;;;1.70;;
11086;SDS011;5597;47.588;9.642;2022-07-04T10:05:47;1.60;;;1.50;;
11086;SDS011;5597;47.588;9.642;2022-07-04T10:08:26;2.23;;;1.70;;
11086;SDS011;5597;47.588;9.642;2022-07-04T10:10:56;3.20;;;1.60;;
11086;SDS011;5597;47.588;9.642;2022-07-04T10:13:23;2.20;;;1.80;;
11086;SDS011;5597;47.588;9.642;2022-07-04T10:15:49;3.00;;;1.73;;
11086;SDS011;5597;47.588;9.642;2022-07-04T10:18:15;2.60;;;1.60;;
11086;SDS011;5597;47.588;9.642;2022-07-04T10:20:43;1.90;;;1.70;;
11086;SDS011;5597;47.588;9.642;2022-07-04T10:23:10;1.57;;;1.47;;
11086;SDS011;5597;47.588;9.642;2022-07-04T10:25:36;2.20;;;1.40;;
11086;SDS011;5597;47.588;9.642;2022-07-04T10:28:03;1.63;;;1.53;;
11086;SDS011;5597;47.588;9.642;2022-07-04T10:30:30;1.70;;;1.60;;
11086;SDS011;5597;47.588;9.642;2022-07-04T10:32:59;1.77;;;1.53;;
11086;SDS011;5597;47.588;9.642;2022-07-04T10:38:14;2.20;;;1.30;;
11086;SDS011;5597;47.588;9.642;2022-07-04T10:40:51;1.47;;;1.37;;
11086;SDS011;5597;47.588;9.642;2022-07-04T10:45:51;2.13;;;1.53;;
11086;SDS011;5597;47.588;9.642;2022-07-04T10:48:23;1.40;;;1.30;;
11086;SDS011;5597;47.588;9.642;2022-07-04T10:50:59;1.43;;;1.33;;
11086;SDS011;5597;47.588;9.642;2022-07-04T10:53:28;1.80;;;1.43;;
11086;SDS011;5597;47.588;9.642;2022-07-04T10:58:46;2.23;;;1.40;;
11086;SDS011;5597;47.588;9.642;2022-07-04T11:01:15;1.40;;;1.30;;
11086;SDS011;5597;47.588;9.642;2022-07-04T11:06:49;1.50;;;1.30;;
11086;SDS011;5597;47.588;9.642;2022-07-04T11:09:19;3.67;;;1.50;;
11086;SDS011;5597;47.588;9.642;2022-07-04T11:17:08;1.43;;;1.33;;
11086;SDS011;5597;47.588;9.642;2022-07-04T11:19:44;1.43;;;1.33;;
11086;SDS011;5597;47.588;9.642;2022-07-04T11:22:10;1.43;;;1.33;;
11086;SDS011;5597;47.588;9.642;2022-07-04T11:24:36;1.40;;;1.30;;
11086;SDS011;5597;47.588;9.642;2022-07-04T11:27:03;3.13;;;1.57;;
11086;SDS011;5597;47.588;9.642;2022-07-04T11:29:31;2.03;;;1.53;;
11086;SDS011;5597;47.588;9.642;2022-07-04T11:31:57;2.07;;;1.60;;
11086;SDS011;5597;47.588;9.642;2022-07-04T11:34:23;1.67;;;1.50;;
11086;SDS011;5597;47.588;9.642;2022-07-04T11:36:49;1.50;;;1.40;;
11086;SDS011;5597;47.588;9.642;2022-07-04T11:39:17;3.10;;;1.40;;
11086;SDS011;5597;47.588;9.642;2022-07-04T11:41:47;1.50;;;1.40;;
11086;SDS011;5597;47.588;9.642;2022-07-04T11:44:36;2.70;;;1.73;;
11086;SDS011;5597;47.588;9.642;2022-07-04T11:50:07;2.13;;;1.60;;
11086;SDS011;5597;47.588;9.642;2022-07-04T11:55:05;1.53;;;1.40;;
11086;SDS011;5597;47.588;9.642;2022-07-04T11:57:33;1.77;;;1.50;;
11086;SDS011;5597;47.588;9.642;2022-07-04T12:00:03;1.67;;;1.40;;
11086;SDS011;5597;47.588;9.642;2022-07-04T12:02:33;2.37;;;1.53;;
11086;SDS011;5597;47.588;9.642;2022-07-04T12:04:59;1.53;;;1.43;;
11086;SDS011;5597;47.588;9.642;2022-07-04T12:07:28;2.10;;;1.50;;
11086;SDS011;5597;47.588;9.642;2022-07-04T12:09:55;3.57;;;1.80;;
11086;SDS011;5597;47.588;9.642;2022-07-04T12:12:21;2.87;;;1.60;;
11086;SDS011;5597;47.588;9.642;2022-07-04T12:17:29;1.50;;;1.40;;
11086;SDS011;5597;47.588;9.642;2022-07-04T12:20:19;2.30;;;1.60;;
11086;SDS011;5597;47.588;9.642;2022-07-04T12:22:59;1.63;;;1.50;;
11086;SDS011;5597;47.588;9.642;2022-07-04T12:25:26;1.70;;;1.60;;
11086;SDS011;5597;47.588;9.642;2022-07-04T12:28:00;2.77;;;1.63;;
11086;SDS011;5597;47.588;9.642;2022-07-04T12:30:28;1.57;;;1.40;;
11086;SDS011;5597;47.588;9.642;2022-07-04T12:33:02;2.10;;;1.67;;
11086;SDS011;5597;47.588;9.642;2022-07-04T12:35:45;1.63;;;1.53;;
11086;SDS011;5597;47.588;9.642;2022-07-04T12:40:52;1.60;;;1.47;;
11086;SDS011;5597;47.588;9.642;2022-07-04T12:43:22;1.50;;;1.40;;
11086;SDS011;5597;47.588;9.642;2022-07-04T12:45:50;3.10;;;1.60;;
11086;SDS011;5597;47.588;9.642;2022-07-04T12:48:24;3.57;;;1.70;;
11086;SDS011;5597;47.588;9.642;2022-07-04T12:51:08;3.57;;;1.60;;
11086;SDS011;5597;47.588;9.642;2022-07-04T12:53:39;1.60;;;1.50;;
11086;SDS011;5597;47.588;9.642;2022-07-04T12:56:06;2.63;;;1.90;;
11086;SDS011;5597;47.588;9.642;2022-07-04T12:58:32;1.83;;;1.63;;
11086;SDS011;5597;47.588;9.642;2022-07-04T13:00:59;2.23;;;1.90;;
11086;SDS011;5597;47.588;9.642;2022-07-04T13:03:24;2.53;;;1.80;;
11086;SDS011;5597;47.588;9.642;2022-07-04T13:05:50;2.00;;;1.70;;
11086;SDS011;5597;47.588;9.642;2022-07-04T13:08:15;1.63;;;1.50;;
11086;SDS011;5597;47.588;9.642;2022-07-04T13:10:41;1.90;;;1.70;;
11086;SDS011;5597;47.588;9.642;2022-07-04T13:13:07;3.30;;;1.83;;
11086;SDS011;5597;47.588;9.642;2022-07-04T13:15:33;1.60;;;1.50;;
11086;SDS011;5597;47.588;9.642;2022-07-04T13:17:59;2.30;;;1.40;;
11086;SDS011;5597;47.588;9.642;2022-07-04T13:20:25;1.30;;;1.20;;
11086;SDS011;5597;47.588;9.642;2022-07-04T13:22:51;3.00;;;1.60;;
11086;SDS011;5597;47.588;9.642;2022-07-04T13:25:17;1.77;;;1.50;;
11086;SDS011;5597;47.588;9.642;2022-07-04T13:27:43;1.70;;;1.53;;
11086;SDS011;5597;47.588;9.642;2022-07-04T13:30:09;1.53;;;1.43;;
11086;SDS011;5597;47.588;9.642;2022-07-04T13:32:35;2.13;;;1.67;;
11086;SDS011;5597;47.588;9.642;2022-07-04T13:35:01;1.60;;;1.50;;
11086;SDS011;5597;47.588;9.642;2022-07-04T13:37:27;2.23;;;1.93;;
11086;SDS011;5597;47.588;9.642;2022-07-04T13:39:53;1.73;;;1.63;;
11086;SDS011;5597;47.588;9.642;2022-07-04T13:42:20;2.13;;;1.90;;
11086;SDS011;5597;47.588;9.642;2022-07-04T13:45:05;1.70;;;1.60;;
11086;SDS011;5597;47.588;9.642;2022-07-04T13:47:31;1.90;;;1.77;;
11086;SDS011;5597;47.588;9.642;2022-07-04T13:49:57;2.00;;;1.80;;
11086;SDS011;5597;47.588;9.642;2022-07-04T13:52:23;1.60;;;1.50;;
11086;SDS011;5597;47.588;9.642;2022-07-04T13:54:48;1.87;;;1.70;;
11086;SDS011;5597;47.588;9.642;2022-07-04T13:57:14;1.87;;;1.67;;
11086;SDS011;5597;47.588;9.642;2022-07-04T13:59:39;1.63;;;1.50;;
11086;SDS011;5597;47.588;9.642;2022-07-04T14:02:05;2.20;;;1.30;;
11086;SDS011;5597;47.588;9.642;2022-07-04T14:04:31;3.07;;;1.70;;
11086;SDS011;5597;47.588;9.642;2022-07-04T14:06:57;1.70;;;1.60;;
11086;SDS011;5597;47.588;9.642;2022-07-04T14:09:23;1.60;;;1.50;;
11086;SDS011;5597;47.588;9.642;2022-07-04T14:11:48;2.47;;;1.43;;
11086;SDS011;5597;47.588;9.642;2022-07-04T14:14:14;2.23;;;1.60;;
11086;SDS011;5597;47.588;9.642;2022-07-04T14:16:40;1.53;;;1.30;;
11086;SDS011;5597;47.588;9.642;2022-07-04T14:19:05;1.63;;;1.53;;
11086;SDS011;5597;47.588;9.642;2022-07-04T14:21:31;2.17;;;1.40;;
11086;SDS011;5597;47.588;9.642;2022-07-04T14:23:56;1.60;;;1.50;;
11086;SDS011;5597;47.588;9.642;2022-07-04T14:26:22;2.07;;;1.70;;
11086;SDS011;5597;47.588;9.642;2022-07-04T14:28:50;2.10;;;1.60;;
11086;SDS011;5597;47.588;9.642;2022-07-04T14:31:16;2.27;;;1.50;;
11086;SDS011;5597;47.588;9.642;2022-07-04T14:33:41;1.50;;;1.40;;
11086;SDS011;5597;47.588;9.642;2022-07-04T14:36:07;1.50;;;1.40;;
11086;SDS011;5597;47.588;9.642;2022-07-04T14:38:34;3.03;;;1.60;;
11086;SDS011;5597;47.588;9.642;2022-07-04T14:41:01;2.70;;;1.70;;
11086;SDS011;5597;47.588;9.642;2022-07-04T14:43:39;1.70;;;1.60;;
11086;SDS011;5597;47.588;9.642;2022-07-04T14:46:07;2.30;;;1.67;;
11086;SDS011;5597;47.588;9.642;2022-07-04T14:48:33;2.20;;;1.73;;
11086;SDS011;5597;47.588;9.642;2022-07-04T14:50:59;1.67;;;1.57;;
11086;SDS011;5597;47.588;9.642;2022-07-04T14:53:25;2.70;;;1.80;;
11086;SDS011;5597;47.588;9.642;2022-07-04T14:55:51;2.30;;;1.83;;
11086;SDS011;5597;47.588;9.642;2022-07-04T14:58:16;1.83;;;1.73;;
11086;SDS011;5597;47.588;9.642;2022-07-04T15:00:42;3.43;;;1.80;;
11086;SDS011;5597;47.588;9.642;2022-07-04T15:03:07;2.17;;;1.50;;
11086;SDS011;5597;47.588;9.642;2022-07-04T15:05:33;3.50;;;1.70;;
11086;SDS011;5597;47.588;9.642;2022-07-04T15:07:59;1.97;;;1.57;;
11086;SDS011;5597;47.588;9.642;2022-07-04T15:10:24;2.80;;;1.70;;
11086;SDS011;5597;47.588;9.642;2022-07-04T15:12:50;2.13;;;1.70;;
11086;SDS011;5597;47.588;9.642;2022-07-04T15:15:16;1.53;;;1.40;;
11086;SDS011;5597;47.588;9.642;2022-07-04T15:17:42;1.77;;;1.60;;
11086;SDS011;5597;47.588;9.642;2022-07-04T15:20:08;1.50;;;1.37;;
11086;SDS011;5597;47.588;9.642;2022-07-04T15:22:52;2.20;;;1.63;;
11086;SDS011;5597;47.588;9.642;2022-07-04T15:25:36;1.80;;;1.50;;
11086;SDS011;5597;47.588;9.642;2022-07-04T15:28:02;2.07;;;1.60;;
11086;SDS011;5597;47.588;9.642;2022-07-04T15:30:29;2.30;;;1.73;;